Time;durP1;ratioP1;P1;durP2;ratioP2;P2;SDS_P1;SDS_P2;PMS_P1;PMS_P2;Temp;Humidity;BMP_temperature;BMP_pressure;BME280_temperature;BME280_humidity;BME280_pressure;Samples;Min_cycle;Max_cycle;Signal;HPM_P1;HPM_P2
2022/05/15 00:01:32;;;;;;;8.37;7.37;;;;;;;13.08;100.00;96599.41;5065162;27;104923;-63
2022/05/15 00:03:59;;;;;;;7.80;6.93;;;;;;;13.11;100.00;96601.53;5037436;27;105711;-63
2022/05/15 00:06:26;;;;;;;8.27;6.73;;;;;;;13.00;100.00;96592.69;5071372;27;102323;-63
2022/05/15 00:08:54;;;;;;;6.53;5.93;;;;;;;12.86;100.00;96596.84;5052019;27;105322;-63
2022/05/15 00:12:12;;;;;;;9.23;6.80;;;;;;;12.98;100.00;96592.13;5069488;27;102029;-63
2022/05/15 00:14:46;;;;;;;7.07;6.40;;;;;;;12.90;100.00;96592.63;5052661;27;105168;-63
2022/05/15 00:17:13;;;;;;;5.73;5.13;;;;;;;12.93;100.00;96593.97;5052323;27;105333;-63
2022/05/15 00:19:41;;;;;;;6.10;5.60;;;;;;;12.47;100.00;96594.75;5071206;27;102051;-63
2022/05/15 00:25:31;;;;;;;6.57;5.97;;;;;;;12.48;100.00;96588.38;5070077;27;102856;-63
2022/05/15 00:27:59;;;;;;;6.70;6.10;;;;;;;12.60;100.00;96580.97;5074280;27;101938;-63
2022/05/15 00:30:26;;;;;;;6.73;6.00;;;;;;;12.60;100.00;96586.31;5070220;27;102661;-63
2022/05/15 00:32:53;;;;;;;8.13;6.33;;;;;;;12.69;100.00;96584.75;5052532;27;102008;-63
2022/05/15 00:35:22;;;;;;;6.43;5.70;;;;;;;12.56;100.00;96585.22;5052049;27;105336;-63
2022/05/15 00:37:48;;;;;;;7.00;6.30;;;;;;;12.47;100.00;96590.22;5051960;27;103898;-63
2022/05/15 00:40:25;;;;;;;6.70;6.00;;;;;;;12.47;100.00;96581.41;5070812;27;101945;-63
2022/05/15 00:42:54;;;;;;;7.43;6.57;;;;;;;12.53;100.00;96583.06;5052463;27;105134;-63
2022/05/15 00:45:53;;;;;;;7.10;6.07;;;;;;;12.46;100.00;96579.81;5069932;27;103034;-63
2022/05/15 00:48:20;;;;;;;7.57;5.80;;;;;;;12.43;100.00;96581.13;5053051;27;101750;-63
2022/05/15 00:51:15;;;;;;;7.27;5.97;;;;;;;12.44;100.00;96582.72;5058818;27;105370;-63
2022/05/15 00:53:42;;;;;;;6.17;5.13;;;;;;;12.43;100.00;96573.13;5055497;27;101935;-63
2022/05/15 00:56:12;;;;;;;5.93;5.20;;;;;;;12.38;100.00;96566.97;5074615;27;102366;-63
2022/05/15 00:58:46;;;;;;;5.40;4.90;;;;;;;12.36;100.00;96574.41;5054688;27;105352;-63
2022/05/15 01:01:33;;;;;;;5.93;4.87;;;;;;;12.18;100.00;96580.16;5055731;27;101887;-63
2022/05/15 01:04:00;;;;;;;5.87;5.37;;;;;;;12.16;100.00;96576.94;5055223;27;104953;-63
2022/05/15 01:06:28;;;;;;;6.00;5.40;;;;;;;12.16;100.00;96574.28;5055185;27;105193;-63
2022/05/15 01:08:55;;;;;;;8.67;5.50;;;;;;;12.21;100.00;96572.44;5055502;27;102023;-63
2022/05/15 01:11:54;;;;;;;6.53;5.07;;;;;;;12.09;100.00;96571.00;5073673;27;102419;-63
2022/05/15 01:14:23;;;;;;;5.70;5.00;;;;;;;12.18;100.00;96569.47;5076697;27;101867;-63
2022/05/15 01:16:57;;;;;;;5.50;5.00;;;;;;;12.17;100.00;96562.56;5055669;27;105523;-63
2022/05/15 01:19:32;;;;;;;5.30;4.80;;;;;;;12.16;100.00;96567.06;5054753;27;104986;-63
2022/05/15 01:22:52;;;;;;;5.50;4.80;;;;;;;12.05;100.00;96567.25;5055150;27;101855;-63
2022/05/15 01:25:26;;;;;;;5.80;5.30;;;;;;;12.00;100.00;96567.22;5054930;27;105145;-63
2022/05/15 01:27:59;;;;;;;5.70;5.20;;;;;;;12.02;100.00;96557.09;5054257;27;105364;-63
2022/05/15 01:30:43;;;;;;;6.23;5.63;;;;;;;11.98;100.00;96566.66;5055453;27;101887;-63
2022/05/15 01:33:11;;;;;;;6.20;5.70;;;;;;;12.02;100.00;96567.75;5055037;27;105597;-63
2022/05/15 01:35:38;;;;;;;6.47;5.87;;;;;;;12.06;100.00;96571.53;5057987;27;105301;-63
2022/05/15 01:38:07;;;;;;;6.50;5.90;;;;;;;12.09;100.00;96568.34;5055038;27;104795;-63
2022/05/15 01:40:55;;;;;;;7.27;5.73;;;;;;;11.92;100.00;96573.00;5054647;27;105089;-63
2022/05/15 01:43:22;;;;;;;6.30;5.40;;;;;;;11.82;100.00;96573.72;5055229;27;101955;-63
2022/05/15 01:45:49;;;;;;;6.90;6.20;;;;;;;11.75;100.00;96578.47;5054699;27;105297;-63
2022/05/15 01:48:16;;;;;;;7.30;6.70;;;;;;;11.71;100.00;96576.53;5072847;27;102447;-63
2022/05/15 01:51:10;;;;;;;6.67;6.07;;;;;;;11.56;100.00;96571.06;5055054;27;101858;-63
2022/05/15 01:53:37;;;;;;;6.97;6.27;;;;;;;11.59;100.00;96578.56;5054652;27;104942;-63
2022/05/15 01:56:06;;;;;;;6.23;5.67;;;;;;;11.63;100.00;96574.34;5054276;27;105381;-63
2022/05/15 01:58:34;;;;;;;6.87;6.17;;;;;;;11.72;100.00;96572.84;5076418;27;102166;-63
2022/05/15 02:01:20;;;;;;;7.27;6.50;;;;;;;11.80;100.00;96581.19;5053756;27;105126;-63
2022/05/15 02:03:47;;;;;;;7.20;6.60;;;;;;;11.74;100.00;96576.03;5053786;27;103238;-63
2022/05/15 02:06:15;;;;;;;6.53;5.87;;;;;;;11.64;100.00;96575.94;5054590;27;105370;-63
2022/05/15 02:08:43;;;;;;;8.43;6.10;;;;;;;11.50;100.00;96574.72;5054345;27;105192;-63
2022/05/15 02:11:22;;;;;;;6.47;5.97;;;;;;;11.53;100.00;96576.88;5054314;27;102289;-63
2022/05/15 02:13:49;;;;;;;6.80;6.20;;;;;;;11.59;100.00;96579.38;5054661;27;104579;-63
2022/05/15 02:16:16;;;;;;;7.23;6.00;;;;;;;11.65;100.00;96569.56;5053784;27;104267;-63
2022/05/15 02:18:44;;;;;;;6.60;6.00;;;;;;;11.59;100.00;96571.38;5054353;27;101902;-63
2022/05/15 02:22:04;;;;;;;6.70;6.10;;;;;;;11.66;100.00;96581.84;5057510;27;104773;-63
2022/05/15 02:24:31;;;;;;;6.60;6.00;;;;;;;11.60;100.00;96569.50;5053683;27;102061;-63
2022/05/15 02:27:01;;;;;;;7.30;6.67;;;;;;;11.48;100.00;96571.50;5054344;27;105098;-63
2022/05/15 02:29:28;;;;;;;8.37;6.10;;;;;;;11.48;100.00;96580.31;5053745;27;105041;-63
2022/05/15 02:32:17;;;;;;;7.80;6.20;;;;;;;11.43;100.00;96568.78;5054228;27;102001;-63
2022/05/15 02:34:44;;;;;;;7.33;6.10;;;;;;;11.42;100.00;96567.16;5040758;27;104780;-63
2022/05/15 02:37:11;;;;;;;6.40;5.67;;;;;;;11.40;100.00;96563.97;5070812;27;105693;-63
2022/05/15 02:39:38;;;;;;;6.93;6.33;;;;;;;11.32;100.00;96562.56;5071470;27;101988;-63
2022/05/15 02:42:45;;;;;;;6.50;5.90;;;;;;;11.29;100.00;96567.59;5054436;27;104778;-63
2022/05/15 02:45:41;;;;;;;5.90;5.40;;;;;;;11.22;100.00;96561.63;5055317;27;104998;-63
2022/05/15 02:51:03;;;;;;;6.17;5.57;;;;;;;11.19;100.00;96562.97;5054134;27;104320;-63
2022/05/15 02:51:03;;;;;;;6.27;5.70;;;;;;;11.28;100.00;96564.09;5053268;27;105298;-63
2022/05/15 02:53:31;;;;;;;6.60;6.00;;;;;;;11.15;100.00;96555.69;5054221;27;101877;-63
2022/05/15 02:55:58;;;;;;;6.70;6.10;;;;;;;11.10;100.00;96550.31;5072200;27;102343;-63
2022/05/15 02:58:25;;;;;;;6.80;6.20;;;;;;;11.04;100.00;96562.78;5053153;27;105574;-63
2022/05/15 03:04:21;;;;;;;6.07;5.50;;;;;;;10.77;100.00;96563.75;5052616;27;105313;-63
2022/05/15 03:06:48;;;;;;;6.20;5.60;;;;;;;10.84;100.00;96559.06;5052888;27;104174;-63
2022/05/15 03:09:15;;;;;;;6.27;5.67;;;;;;;10.95;100.00;96561.59;5056895;27;102065;-63
2022/05/15 03:11:43;;;;;;;6.20;5.60;;;;;;;10.89;100.00;96562.59;5070509;27;102663;-63
2022/05/15 03:14:10;;;;;;;6.33;5.83;;;;;;;10.77;100.00;96558.44;5053807;27;101827;-63
2022/05/15 03:20:01;;;;;;;6.80;5.80;;;;;;;10.76;100.00;96556.84;5069615;27;105715;-63
2022/05/15 03:22:28;;;;;;;6.50;5.30;;;;;;;10.81;100.00;96555.06;5053726;27;101958;-63
2022/05/15 03:24:55;;;;;;;5.93;5.43;;;;;;;10.90;100.00;96560.75;5052825;27;105386;-63
2022/05/15 03:27:23;;;;;;;7.97;5.77;;;;;;;10.95;100.00;96564.25;5070936;27;102485;-63
2022/05/15 03:29:50;;;;;;;5.83;5.33;;;;;;;10.95;100.00;96555.50;5075382;27;102157;-63
2022/05/15 03:32:52;;;;;;;7.70;6.40;;;;;;;11.05;100.00;96571.53;5052288;27;105402;-63
2022/05/15 03:35:22;;;;;;;5.60;5.10;;;;;;;11.03;100.00;96563.84;5053180;27;102073;-63
2022/05/15 03:37:49;;;;;;;5.60;5.20;;;;;;;11.01;100.00;96567.78;5071447;27;102369;-63
2022/05/15 03:40:39;;;;;;;6.07;5.47;;;;;;;10.95;100.00;96568.78;5052394;27;105370;-63
2022/05/15 03:43:08;;;;;;;5.00;4.60;;;;;;;10.77;100.00;96569.91;5071350;27;101910;-63
2022/05/15 03:45:43;;;;;;;5.03;4.60;;;;;;;10.77;100.00;96571.75;5071235;27;102886;-63
2022/05/15 03:48:10;;;;;;;4.90;4.50;;;;;;;10.63;100.00;96578.47;5050767;27;102508;-63
2022/05/15 03:50:49;;;;;;;5.67;5.10;;;;;;;10.62;100.00;96571.53;5051358;27;101912;-63
2022/05/15 03:53:16;;;;;;;5.20;4.80;;;;;;;10.52;100.00;96576.75;5054867;27;105609;-63
2022/05/15 03:55:43;;;;;;;7.03;5.60;;;;;;;10.64;100.00;96577.44;5052426;27;102343;-63
2022/05/15 03:58:10;;;;;;;5.30;4.80;;;;;;;10.55;100.00;96574.38;5053096;27;105358;-63
2022/05/15 04:00:51;;;;;;;7.00;5.40;;;;;;;10.59;100.00;96578.19;5052244;27;105014;-63
2022/05/15 04:03:19;;;;;;;6.03;5.23;;;;;;;10.80;100.00;96580.03;5069728;27;101861;-63
2022/05/15 04:05:46;;;;;;;6.00;5.50;;;;;;;10.92;100.00;96578.06;5052578;27;105666;-63
2022/05/15 04:08:15;;;;;;;5.87;5.27;;;;;;;11.02;100.00;96577.38;5070574;27;103083;-63
2022/05/15 04:10:54;;;;;;;6.57;6.00;;;;;;;11.10;100.00;96577.75;5071473;27;101848;-63
2022/05/15 04:13:23;;;;;;;6.57;5.97;;;;;;;11.19;100.00;96576.25;5071164;27;102836;-63
2022/05/15 04:15:59;;;;;;;6.70;6.10;;;;;;;11.26;100.00;96581.38;5055560;27;104702;-63
2022/05/15 04:18:26;;;;;;;6.77;6.17;;;;;;;11.38;100.00;96582.84;5052250;27;103917;-63
2022/05/15 04:21:44;;;;;;;7.03;6.30;;;;;;;11.39;100.00;96579.13;5052195;27;105004;-63
2022/05/15 04:24:15;;;;;;;5.93;5.37;;;;;;;11.45;100.00;96567.47;5040894;27;102026;-63
2022/05/15 04:26:44;;;;;;;5.80;5.30;;;;;;;11.55;100.00;96569.47;5030188;27;102262;-63
2022/05/15 04:29:12;;;;;;;6.67;5.50;;;;;;;11.64;100.00;96566.09;5028532;28;105826;-63
2022/05/15 04:31:59;;;;;;;6.50;5.90;;;;;;;11.79;100.00;96573.44;5028756;28;101880;-63
2022/05/15 04:34:30;;;;;;;5.90;5.40;;;;;;;11.87;100.00;96571.09;5010457;28;102359;-63
2022/05/15 04:36:58;;;;;;;6.60;6.00;;;;;;;11.98;100.00;96569.31;5026658;28;103214;-63
2022/05/15 04:39:26;;;;;;;7.37;6.67;;;;;;;12.14;100.00;96571.84;5033789;28;101908;-63
2022/05/15 04:42:00;;;;;;;7.80;6.77;;;;;;;12.31;100.00;96569.06;5028028;28;104204;-63
2022/05/15 04:44:28;;;;;;;7.60;6.83;;;;;;;12.39;100.00;96579.22;5030480;27;101673;-63
2022/05/15 04:46:54;;;;;;;9.40;7.53;;;;;;;12.49;100.00;96576.63;5029867;28;103233;-63
2022/05/15 04:49:21;;;;;;;8.33;7.53;;;;;;;12.50;100.00;96581.72;5029764;28;102828;-63
2022/05/15 04:51:49;;;;;;;8.13;7.40;;;;;;;12.53;100.00;96577.75;5028234;28;103304;-63
2022/05/15 04:54:16;;;;;;;8.30;7.50;;;;;;;12.61;100.00;96585.25;5030157;28;102468;-63
2022/05/15 04:56:44;;;;;;;9.17;8.27;;;;;;;12.75;100.00;96579.19;5029392;28;103095;-63
2022/05/15 04:59:12;;;;;;;8.90;8.10;;;;;;;12.91;100.00;96575.53;5029765;28;102030;-63
2022/05/15 05:02:03;;;;;;;8.23;7.43;;;;;;;13.05;100.00;96576.69;5032833;28;102385;-63
2022/05/15 05:04:31;;;;;;;8.40;7.50;;;;;;;13.12;100.00;96584.44;5027670;28;101925;-63
2022/05/15 05:06:58;;;;;;;9.27;8.37;;;;;;;13.29;100.00;96583.19;5029461;28;104182;-63
2022/05/15 05:09:26;;;;;;;9.30;8.43;;;;;;;13.41;100.00;96588.31;5029380;28;102106;-63
2022/05/15 05:15:29;;;;;;;8.43;7.17;;;;;;;13.29;100.00;96585.84;5014559;28;102475;-63
2022/05/15 05:17:56;;;;;;;8.07;7.27;;;;;;;13.26;100.00;96586.41;5029315;28;102667;-63
2022/05/15 05:20:40;;;;;;;8.27;7.47;;;;;;;13.42;100.00;96588.03;5029587;28;103909;-63
2022/05/15 05:23:08;;;;;;;7.53;6.83;;;;;;;13.72;100.00;96592.63;5007976;28;106707;-63
2022/05/15 05:25:35;;;;;;;7.67;6.70;;;;;;;13.89;100.00;96594.00;5053871;27;105473;-63
2022/05/15 05:28:02;;;;;;;7.37;6.53;;;;;;;14.09;100.00;96591.38;5048521;27;103742;-63
2022/05/15 05:30:50;;;;;;;8.27;7.07;;;;;;;14.22;100.00;96595.41;5048987;27;102886;-65
2022/05/15 05:33:17;;;;;;;8.40;6.93;;;;;;;14.21;100.00;96594.59;5048188;27;101943;-64
2022/05/15 05:35:44;;;;;;;9.53;6.80;;;;;;;14.34;100.00;96594.03;5059934;27;104817;-64
2022/05/15 05:38:12;;;;;;;7.77;6.97;;;;;;;14.31;100.00;96591.09;5032364;28;103120;-64
2022/05/15 05:40:38;;;;;;;8.17;7.33;;;;;;;14.28;100.00;96594.34;5038604;27;102171;-63
2022/05/15 05:43:06;;;;;;;10.13;6.97;;;;;;;14.39;100.00;96588.69;5048481;27;104687;-63
2022/05/15 05:45:48;;;;;;;8.10;7.30;;;;;;;14.53;100.00;96592.44;5042012;27;102879;-63
2022/05/15 05:48:15;;;;;;;8.97;7.47;;;;;;;14.65;100.00;96595.63;5053174;27;103257;-63
2022/05/15 05:51:23;;;;;;;8.07;7.27;;;;;;;14.93;100.00;96592.34;5051001;27;105082;-63
2022/05/15 05:53:49;;;;;;;9.30;7.63;;;;;;;15.13;100.00;96608.34;5054261;27;101820;-63
2022/05/15 05:56:16;;;;;;;8.13;7.47;;;;;;;15.21;100.00;96609.66;5045308;27;103422;-63
2022/05/15 05:58:45;;;;;;;8.90;7.80;;;;;;;15.23;100.00;96607.50;5050967;27;105447;-63
2022/05/15 06:01:23;;;;;;;9.17;8.30;;;;;;;15.39;100.00;96601.84;5052552;27;103300;-63
2022/05/15 06:06:34;;;;;;;8.40;7.60;;;;;;;15.90;100.00;96602.34;5050530;27;105760;-63
2022/05/15 06:09:01;;;;;;;8.00;7.20;;;;;;;15.75;100.00;96602.47;5056167;27;101842;-63
2022/05/15 06:11:57;;;;;;;8.33;7.47;;;;;;;15.40;100.00;96597.28;5050709;27;103963;-63
2022/05/15 06:14:24;;;;;;;9.17;7.27;;;;;;;15.46;100.00;96599.66;5051087;27;102288;-63
2022/05/15 06:20:16;;;;;;;8.43;7.27;;;;;;;16.02;100.00;96594.78;5050488;27;105927;-63
2022/05/15 06:22:44;;;;;;;10.20;7.43;;;;;;;16.26;100.00;96593.78;5051024;27;101942;-63
2022/05/15 06:25:12;;;;;;;22.27;16.00;;;;;;;16.53;100.00;96596.81;5049145;27;105946;-63
2022/05/15 06:27:40;;;;;;;12.93;9.60;;;;;;;16.81;100.00;96587.13;5044843;27;103949;-63
2022/05/15 06:30:08;;;;;;;10.10;8.30;;;;;;;16.88;100.00;96590.25;5052509;27;101850;-63
2022/05/15 06:32:35;;;;;;;20.90;13.17;;;;;;;17.09;100.00;96588.97;5050183;27;103824;-63
2022/05/15 06:35:02;;;;;;;18.07;14.50;;;;;;;17.25;100.00;96593.09;5031388;27;102094;-63
2022/05/15 06:37:30;;;;;;;7.23;6.63;;;;;;;17.17;100.00;96588.34;5042329;27;102677;-63
2022/05/15 06:39:57;;;;;;;10.37;8.57;;;;;;;17.23;100.00;96582.59;5031442;27;102891;-63
2022/05/15 06:42:25;;;;;;;9.10;7.13;;;;;;;17.35;100.00;96590.28;5033458;27;101940;-63
2022/05/15 06:44:53;;;;;;;10.83;9.20;;;;;;;17.30;100.00;96590.34;5051620;27;102264;-63
2022/05/15 06:47:20;;;;;;;7.90;7.10;;;;;;;16.78;100.00;96593.09;5050897;27;104322;-63
2022/05/15 06:49:48;;;;;;;7.17;6.47;;;;;;;17.04;100.00;96597.91;5052238;27;101835;-63
2022/05/15 06:52:33;;;;;;;8.37;6.60;;;;;;;17.33;100.00;96592.47;5044332;27;103990;-63
2022/05/15 06:55:01;;;;;;;6.70;6.00;;;;;;;17.55;100.00;96590.06;5034589;27;105283;-63
2022/05/15 06:57:29;;;;;;;14.70;10.17;;;;;;;17.76;100.00;96588.69;5051835;27;102512;-63
2022/05/15 06:59:56;;;;;;;6.97;6.27;;;;;;;17.85;100.00;96592.31;5028671;28;105337;-63
2022/05/15 07:03:03;;;;;;;6.90;6.20;;;;;;;17.99;100.00;96593.19;5032618;27;102106;-63
2022/05/15 07:05:31;;;;;;;7.97;6.23;;;;;;;17.77;100.00;96590.28;5035576;27;104770;-63
2022/05/15 07:07:59;;;;;;;7.33;6.33;;;;;;;17.60;100.00;96585.41;5050101;27;102709;-63
2022/05/15 07:10:26;;;;;;;6.77;6.17;;;;;;;17.85;100.00;96586.94;5050283;27;101876;-63
2022/05/15 07:12:53;;;;;;;7.03;6.07;;;;;;;17.80;100.00;96582.44;5046091;27;102850;-63
2022/05/15 07:15:36;;;;;;;6.70;6.10;;;;;;;18.09;100.00;96584.97;5033986;27;103154;-63
2022/05/15 07:18:03;;;;;;;6.83;6.13;;;;;;;18.60;100.00;96580.38;5042240;27;101966;-63
2022/05/15 07:20:34;;;;;;;7.53;6.17;;;;;;;18.76;100.00;96584.41;5009503;28;103888;-63
2022/05/15 07:23:04;;;;;;;7.03;5.93;;;;;;;18.18;100.00;96575.94;5018170;27;102035;-63
2022/05/15 07:25:31;;;;;;;6.37;5.77;;;;;;;17.95;100.00;96584.09;5029629;27;104696;-63
2022/05/15 07:27:58;;;;;;;6.60;5.90;;;;;;;18.56;100.00;96582.06;5028938;28;105524;-63
2022/05/15 07:30:42;;;;;;;5.93;5.23;;;;;;;18.72;100.00;96575.31;5029617;28;101883;-62
2022/05/15 07:33:10;;;;;;;5.97;5.37;;;;;;;18.93;100.00;96576.53;5029274;28;106067;-62
2022/05/15 07:35:37;;;;;;;5.33;4.77;;;;;;;19.20;100.00;96571.16;5028880;28;105679;-63
2022/05/15 07:38:05;;;;;;;4.93;4.43;;;;;;;19.48;100.00;96581.66;5029843;28;102002;-63
2022/05/15 07:40:56;;;;;;;5.83;5.17;;;;;;;19.29;100.00;96575.56;5032355;28;105541;-63
2022/05/15 07:43:23;;;;;;;5.67;4.70;;;;;;;19.21;100.00;96578.16;5030369;27;101942;-63
2022/05/15 07:46:10;;;;;;;8.27;4.67;;;;;;;19.23;100.00;96576.00;5025190;28;105072;-63
2022/05/15 07:48:37;;;;;;;5.97;5.03;;;;;;;19.33;100.00;96570.38;5028954;28;105703;-63
2022/05/15 07:51:09;;;;;;;5.10;4.67;;;;;;;19.56;100.00;96569.38;5028961;28;101962;-63
2022/05/15 07:53:38;;;;;;;5.20;4.70;;;;;;;19.76;100.00;96564.31;5029572;28;105476;-63
2022/05/15 07:56:09;;;;;;;6.47;5.00;;;;;;;20.00;100.00;96561.38;5028631;28;104105;-63
2022/05/15 07:58:37;;;;;;;6.70;4.70;;;;;;;19.89;100.00;96562.69;5039146;27;101905;-62
2022/05/15 08:01:26;;;;;;;5.70;5.20;;;;;;;20.27;100.00;96550.47;5032218;28;104991;-63
2022/05/15 08:03:53;;;;;;;5.57;5.07;;;;;;;20.42;100.00;96550.91;5029216;28;101904;-63
2022/05/15 08:09:08;;;;;;;4.97;4.40;;;;;;;20.91;100.00;96550.72;5028738;28;105452;-62
2022/05/15 08:11:51;;;;;;;5.40;4.47;;;;;;;21.05;100.00;96550.63;5029162;28;101809;-63
2022/05/15 08:14:20;;;;;;;5.67;4.00;;;;;;;21.14;100.00;96549.53;5029498;28;104990;-63
2022/05/15 08:17:12;;;;;;;6.47;4.20;;;;;;;21.56;100.00;96556.97;5028411;28;105855;-63
2022/05/15 08:25:31;;;;;;;5.33;4.83;;;;;;;22.33;100.00;96551.59;5030948;27;105600;-63
2022/05/15 08:27:58;;;;;;;4.90;4.47;;;;;;;22.51;100.00;96547.81;5030279;28;102474;-63
2022/05/15 08:30:56;;;;;;;7.40;4.57;;;;;;;22.69;100.00;96544.75;5029569;28;103211;-63
2022/05/15 08:33:24;;;;;;;5.97;4.63;;;;;;;21.81;100.00;96540.00;5030549;28;101754;-63
2022/05/15 08:35:51;;;;;;;4.83;4.23;;;;;;;21.83;100.00;96548.59;5030202;28;102328;-63
2022/05/15 08:38:18;;;;;;;5.63;4.90;;;;;;;22.07;100.00;96535.38;5029697;28;102636;-63
2022/05/15 08:40:58;;;;;;;6.53;4.57;;;;;;;22.48;100.00;96551.16;5030337;28;101935;-63
2022/05/15 08:43:40;;;;;;;5.33;4.80;;;;;;;22.60;100.00;96549.38;5030397;28;102431;-63
2022/05/15 08:46:31;;;;;;;6.97;4.07;;;;;;;23.21;100.00;96548.09;5027866;28;105372;-63
2022/05/15 08:49:07;;;;;;;4.33;3.43;;;;;;;23.37;100.00;96552.63;5049310;27;102115;-63
2022/05/15 08:51:47;;;;;;;4.17;3.30;;;;;;;23.41;100.00;96544.63;5028016;28;105440;-63
2022/05/15 08:54:14;;;;;;;5.90;4.40;;;;;;;23.27;100.00;96549.50;5028758;28;101918;-63
2022/05/15 08:56:46;;;;;;;3.63;3.10;;;;;;;23.61;100.00;96552.03;5027934;28;105001;-63
2022/05/15 08:59:23;;;;;;;4.80;4.33;;;;;;;22.58;100.00;96554.34;5028813;27;102724;-63
2022/05/15 09:01:56;;;;;;;3.40;3.10;;;;;;;23.22;100.00;96547.75;5030124;28;101766;-63
2022/05/15 09:04:23;;;;;;;3.13;2.83;;;;;;;23.86;100.00;96548.34;5029847;28;102389;-63
2022/05/15 09:07:00;;;;;;;6.53;2.87;;;;;;;24.17;97.11;96551.47;5029051;28;102610;-63
2022/05/15 09:09:38;;;;;;;3.07;2.47;;;;;;;24.70;99.25;96556.94;5029487;27;101926;-63
2022/05/15 09:12:24;;;;;;;3.20;2.90;;;;;;;24.38;91.09;96544.91;5036494;28;102967;-63
2022/05/15 09:15:08;;;;;;;4.57;2.50;;;;;;;24.40;100.00;96544.53;5033458;28;101855;-63
2022/05/15 09:17:42;;;;;;;3.37;2.43;;;;;;;24.60;88.51;96538.31;5031799;28;105115;-63
2022/05/15 09:20:13;;;;;;;3.27;2.10;;;;;;;25.05;83.63;96531.72;5032582;28;102921;-63
2022/05/15 09:22:44;;;;;;;3.47;2.27;;;;;;;25.17;86.82;96530.94;5030990;28;102175;-63
2022/05/15 09:25:17;;;;;;;3.67;2.47;;;;;;;25.25;83.07;96539.03;5012708;28;105624;-63
2022/05/15 09:28:01;;;;;;;3.73;2.07;;;;;;;25.40;83.14;96538.34;5028789;28;102675;-63
2022/05/15 09:30:35;;;;;;;1.97;1.83;;;;;;;25.54;80.87;96536.06;5032898;28;101962;-63
2022/05/15 09:33:03;;;;;;;5.33;2.13;;;;;;;25.82;80.46;96536.94;5033447;28;102901;-63
2022/05/15 09:35:35;;;;;;;2.40;2.00;;;;;;;25.90;78.40;96535.22;5035545;28;102664;-63
2022/05/15 09:44:04;;;;;;;2.23;2.10;;;;;;;26.34;61.78;96529.56;5032669;28;101971;-63
2022/05/15 09:46:41;;;;;;;4.03;1.90;;;;;;;26.35;59.44;96536.59;5031601;28;104782;-63
2022/05/15 09:49:21;;;;;;;2.70;2.10;;;;;;;26.39;63.13;96534.75;5032219;28;102764;-63
2022/05/15 09:51:54;;;;;;;2.93;2.00;;;;;;;26.70;59.01;96534.06;5031646;28;101960;-63
2022/05/15 09:54:42;;;;;;;3.57;2.20;;;;;;;26.68;59.58;96537.13;5042662;27;105248;-63
2022/05/15 09:57:13;;;;;;;2.80;2.03;;;;;;;27.01;55.96;96534.91;5022324;28;101768;-63
2022/05/15 09:59:43;;;;;;;2.83;2.30;;;;;;;27.00;57.53;96527.06;5036094;27;101845;-63
2022/05/15 10:02:19;;;;;;;2.77;2.10;;;;;;;27.08;58.56;96528.81;5030723;28;105377;-63
2022/05/15 10:04:51;;;;;;;4.30;2.10;;;;;;;26.98;56.38;96530.13;5032722;28;102204;-63
2022/05/15 10:07:34;;;;;;;2.43;1.90;;;;;;;27.35;61.95;96523.28;5032307;28;102452;-63
2022/05/15 10:10:22;;;;;;;2.90;1.93;;;;;;;27.60;57.77;96519.22;5030267;28;106050;-62
2022/05/15 10:12:53;;;;;;;2.97;2.13;;;;;;;27.46;52.81;96512.63;5026008;28;101997;-63
2022/05/15 10:15:31;;;;;;;2.63;2.40;;;;;;;27.43;50.50;96514.13;5032656;28;102325;-63
2022/05/15 10:18:01;;;;;;;3.63;2.43;;;;;;;27.71;59.57;96525.72;5031374;28;104690;-63
2022/05/15 10:20:48;;;;;;;4.87;2.30;;;;;;;28.06;57.36;96512.81;5035921;27;101730;-63
2022/05/15 10:23:19;;;;;;;3.57;2.00;;;;;;;28.10;51.58;96510.16;5031533;28;102847;-62
2022/05/15 10:25:55;;;;;;;2.73;2.27;;;;;;;28.13;55.96;96509.47;5032535;27;101994;-63
2022/05/15 10:28:30;;;;;;;3.93;2.13;;;;;;;27.99;52.58;96514.63;5032199;28;102378;-63
2022/05/15 10:31:04;;;;;;;2.87;2.27;;;;;;;28.13;52.72;96510.25;5031691;28;102736;-63
2022/05/15 10:33:36;;;;;;;6.00;2.07;;;;;;;28.39;53.65;96502.19;5030720;28;101752;-63
2022/05/15 10:36:12;;;;;;;3.97;2.00;;;;;;;28.50;52.13;96507.91;5031996;27;102435;-63
2022/05/15 10:38:50;;;;;;;2.80;1.90;;;;;;;28.21;53.37;96505.69;5031339;28;102623;-63
2022/05/15 10:41:53;;;;;;;2.53;1.87;;;;;;;28.22;50.40;96501.84;5032361;27;101776;-63
2022/05/15 10:44:39;;;;;;;2.57;2.17;;;;;;;28.48;50.54;96499.25;5034712;28;102953;-63
2022/05/15 10:47:12;;;;;;;2.90;2.10;;;;;;;28.33;50.01;96497.38;5031820;27;101956;-63
2022/05/15 10:50:07;;;;;;;2.90;2.20;;;;;;;28.47;53.35;96494.94;5030293;28;105098;-63
2022/05/15 10:52:48;;;;;;;4.67;2.60;;;;;;;28.53;50.87;96496.22;5031286;28;103076;-63
2022/05/15 10:58:14;;;;;;;6.13;2.70;;;;;;;28.64;49.39;96487.06;5031799;27;103492;-63
2022/05/15 11:01:18;;;;;;;2.30;2.10;;;;;;;28.85;50.37;96483.91;5031019;28;102497;-63
2022/05/15 11:04:00;;;;;;;3.72;2.20;;;;;;;28.70;48.50;96480.13;5030068;28;101908;-63
2022/05/15 11:06:39;;;;;;;2.25;2.05;;;;;;;28.96;48.14;96476.66;5031244;28;104360;-63
2022/05/15 11:09:11;;;;;;;2.50;2.13;;;;;;;29.27;49.74;96476.44;5033946;28;104391;-63
2022/05/15 11:11:53;;;;;;;2.75;2.20;;;;;;;28.99;47.02;96470.50;5030037;28;104996;-63
2022/05/15 11:14:33;;;;;;;3.92;2.00;;;;;;;29.34;46.29;96468.31;5030987;28;102708;-63
2022/05/15 11:17:12;;;;;;;2.75;1.98;;;;;;;28.66;47.10;96467.53;5031467;28;102390;-63
2022/05/15 11:19:44;;;;;;;2.20;2.00;;;;;;;29.24;47.18;96466.19;5029743;28;106934;-63
2022/05/15 11:22:33;;;;;;;2.35;2.10;;;;;;;29.39;45.79;96463.31;5031002;28;102703;-63
2022/05/15 11:25:06;;;;;;;2.67;2.03;;;;;;;29.05;46.77;96463.56;5028916;27;102057;-63
2022/05/15 11:27:42;;;;;;;3.97;2.20;;;;;;;29.26;45.80;96464.66;5031473;28;102367;-63
2022/05/15 11:30:24;;;;;;;2.35;1.90;;;;;;;29.75;44.55;96464.66;5030645;28;103575;-63
2022/05/15 11:33:08;;;;;;;3.80;2.10;;;;;;;29.47;43.37;96453.25;5033602;28;101943;-63
2022/05/15 11:35:41;;;;;;;2.67;2.13;;;;;;;29.21;43.08;96453.25;5030548;28;102706;-63
2022/05/15 11:38:27;;;;;;;3.70;2.00;;;;;;;29.29;44.10;96441.22;5031137;28;101700;-63
2022/05/15 11:41:37;;;;;;;3.25;1.83;;;;;;;29.69;45.86;96444.22;5029648;28;104012;-63
2022/05/15 11:44:07;;;;;;;4.00;1.77;;;;;;;29.87;44.17;96450.72;5046061;27;105548;-63
2022/05/15 11:47:21;;;;;;;2.00;1.65;;;;;;;30.06;41.59;96443.13;5030671;27;101842;-63
2022/05/15 11:50:13;;;;;;;1.90;1.70;;;;;;;29.84;41.18;96441.28;5030988;28;102824;-63
2022/05/15 11:53:03;;;;;;;1.73;1.63;;;;;;;30.21;40.09;96435.88;5008664;28;105297;-63
2022/05/15 11:55:49;;;;;;;3.13;1.90;;;;;;;29.77;38.49;96440.38;5013146;28;101687;-63
2022/05/15 11:58:27;;;;;;;3.15;1.88;;;;;;;30.05;40.62;96425.09;5032341;28;105233;-63
2022/05/15 12:01:43;;;;;;;2.42;2.10;;;;;;;30.17;40.16;96424.06;5030725;28;102137;-63
2022/05/15 12:04:16;;;;;;;2.53;1.70;;;;;;;30.04;39.34;96425.44;5030927;28;102427;-63
2022/05/15 12:06:49;;;;;;;2.45;2.03;;;;;;;29.76;40.20;96420.38;5029911;28;102551;-63
2022/05/15 12:09:32;;;;;;;1.98;1.55;;;;;;;29.54;44.89;96412.28;5025480;28;101869;-63
2022/05/15 12:12:40;;;;;;;2.00;1.80;;;;;;;30.01;41.25;96407.78;5025861;28;102316;-63
2022/05/15 12:15:10;;;;;;;3.55;1.95;;;;;;;30.38;39.24;96407.81;5017963;27;102634;-63
2022/05/15 12:17:41;;;;;;;3.38;1.70;;;;;;;30.41;40.45;96415.31;5029344;28;101837;-63
2022/05/15 12:20:17;;;;;;;3.35;1.52;;;;;;;30.87;36.95;96411.88;5029033;28;103698;-63
2022/05/15 12:22:52;;;;;;;2.40;1.92;;;;;;;31.09;37.59;96401.81;5033655;27;101658;-63
2022/05/15 12:25:29;;;;;;;1.90;1.60;;;;;;;31.01;38.05;96402.97;5026819;27;103664;-62
2022/05/15 12:30:44;;;;;;;2.65;1.63;;;;;;;30.55;38.57;96401.72;5029896;28;101949;-63
2022/05/15 12:33:13;;;;;;;2.58;1.83;;;;;;;30.77;38.14;96403.53;5027523;28;103958;-62
2022/05/15 12:35:43;;;;;;;2.58;1.70;;;;;;;30.21;39.82;96405.69;5029546;28;102633;-62